sensor_id;sensor_type;location;lat;lon;timestamp;P1;P2;P0
80628;PMS5003;69983;42.370;-71.210;2024-02-28T00:01:15;157;114;
80628;PMS5003;69983;42.370;-71.210;2024-02-28T00:03:15;130;96;
80628;PMS5003;69983;42.370;-71.210;2024-02-28T00:05:16;111;74;
80628;PMS5003;69983;42.370;-71.210;2024-02-28T00:07:16;86;62;
80628;PMS5003;69983;42.370;-71.210;2024-02-28T00:09:18;89;63;
80628;PMS5003;69983;42.370;-71.210;2024-02-28T00:11:17;72;55;
80628;PMS5003;69983;42.370;-71.210;2024-02-28T00:13:18;60;49;
80628;PMS5003;69983;42.370;-71.210;2024-02-28T00:15:18;52;42;
80628;PMS5003;69983;42.370;-71.210;2024-02-28T00:17:19;45;34;
80628;PMS5003;69983;42.370;-71.210;2024-02-28T00:19:19;41;29;
80628;PMS5003;69983;42.370;-71.210;2024-02-28T00:21:20;35;28;
80628;PMS5003;69983;42.370;-71.210;2024-02-28T00:23:20;28;24;
80628;PMS5003;69983;42.370;-71.210;2024-02-28T00:25:20;27;22;
80628;PMS5003;69983;42.370;-71.210;2024-02-28T00:27:21;21;17;
80628;PMS5003;69983;42.370;-71.210;2024-02-28T00:29:22;19;15;
80628;PMS5003;69983;42.370;-71.210;2024-02-28T00:31:22;26;17;
80628;PMS5003;69983;42.370;-71.210;2024-02-28T00:33:22;19;13;
80628;PMS5003;69983;42.370;-71.210;2024-02-28T00:35:22;15;10;
80628;PMS5003;69983;42.370;-71.210;2024-02-28T00:37:23;16;10;
80628;PMS5003;69983;42.370;-71.210;2024-02-28T00:39:24;12;9;
80628;PMS5003;69983;42.370;-71.210;2024-02-28T00:41:24;11;9;
80628;PMS5003;69983;42.370;-71.210;2024-02-28T00:43:24;7;7;
80628;PMS5003;69983;42.370;-71.210;2024-02-28T00:45:24;8;5;
80628;PMS5003;69983;42.370;-71.210;2024-02-28T00:47:24;10;6;
80628;PMS5003;69983;42.370;-71.210;2024-02-28T00:49:24;8;6;
80628;PMS5003;69983;42.370;-71.210;2024-02-28T00:51:24;6;5;
80628;PMS5003;69983;42.370;-71.210;2024-02-28T00:53:24;4;4;
80628;PMS5003;69983;42.370;-71.210;2024-02-28T00:55:24;6;5;
80628;PMS5003;69983;42.370;-71.210;2024-02-28T00:57:25;3;3;
80628;PMS5003;69983;42.370;-71.210;2024-02-28T00:59:25;6;4;
80628;PMS5003;69983;42.370;-71.210;2024-02-28T01:01:25;3;3;
80628;PMS5003;69983;42.370;-71.210;2024-02-28T01:03:25;3;3;
80628;PMS5003;69983;42.370;-71.210;2024-02-28T01:05:25;3;2;
80628;PMS5003;69983;42.370;-71.210;2024-02-28T01:07:25;4;4;
80628;PMS5003;69983;42.370;-71.210;2024-02-28T01:09:28;8;6;
80628;PMS5003;69983;42.370;-71.210;2024-02-28T01:11:25;10;10;
80628;PMS5003;69983;42.370;-71.210;2024-02-28T01:13:26;13;12;
80628;PMS5003;69983;42.370;-71.210;2024-02-28T01:15:26;12;9;
80628;PMS5003;69983;42.370;-71.210;2024-02-28T01:17:26;16;12;
80628;PMS5003;69983;42.370;-71.210;2024-02-28T01:19:27;18;14;
80628;PMS5003;69983;42.370;-71.210;2024-02-28T01:21:27;20;15;
80628;PMS5003;69983;42.370;-71.210;2024-02-28T01:23:27;16;15;
80628;PMS5003;69983;42.370;-71.210;2024-02-28T01:25:28;109;90;
80628;PMS5003;69983;42.370;-71.210;2024-02-28T01:27:28;69;62;
80628;PMS5003;69983;42.370;-71.210;2024-02-28T01:29:29;73;63;
80628;PMS5003;69983;42.370;-71.210;2024-02-28T01:31:29;61;52;
80628;PMS5003;69983;42.370;-71.210;2024-02-28T01:33:30;63;51;
80628;PMS5003;69983;42.370;-71.210;2024-02-28T01:35:30;50;43;
80628;PMS5003;69983;42.370;-71.210;2024-02-28T01:37:31;42;38;
80628;PMS5003;69983;42.370;-71.210;2024-02-28T01:39:32;40;39;
80628;PMS5003;69983;42.370;-71.210;2024-02-28T01:41:32;48;36;
80628;PMS5003;69983;42.370;-71.210;2024-02-28T01:43:32;44;37;
80628;PMS5003;69983;42.370;-71.210;2024-02-28T01:45:33;43;35;
80628;PMS5003;69983;42.370;-71.210;2024-02-28T01:47:34;113;94;
80628;PMS5003;69983;42.370;-71.210;2024-02-28T01:49:35;253;212;
80628;PMS5003;69983;42.370;-71.210;2024-02-28T01:51:35;286;249;
80628;PMS5003;69983;42.370;-71.210;2024-02-28T01:53:36;251;213;
80628;PMS5003;69983;42.370;-71.210;2024-02-28T01:55:36;290;219;
80628;PMS5003;69983;42.370;-71.210;2024-02-28T01:57:36;244;191;
80628;PMS5003;69983;42.370;-71.210;2024-02-28T01:59:45;213;176;
80628;PMS5003;69983;42.370;-71.210;2024-02-28T02:01:37;196;160;
80628;PMS5003;69983;42.370;-71.210;2024-02-28T02:03:37;163;137;
80628;PMS5003;69983;42.370;-71.210;2024-02-28T02:05:37;206;170;
80628;PMS5003;69983;42.370;-71.210;2024-02-28T02:07:37;332;247;
80628;PMS5003;69983;42.370;-71.210;2024-02-28T02:09:38;318;257;
80628;PMS5003;69983;42.370;-71.210;2024-02-28T02:11:39;299;213;
80628;PMS5003;69983;42.370;-71.210;2024-02-28T02:13:47;269;206;
80628;PMS5003;69983;42.370;-71.210;2024-02-28T02:15:39;268;204;
80628;PMS5003;69983;42.370;-71.210;2024-02-28T02:17:39;249;183;
80628;PMS5003;69983;42.370;-71.210;2024-02-28T02:19:45;232;169;
80628;PMS5003;69983;42.370;-71.210;2024-02-28T02:21:41;219;157;
80628;PMS5003;69983;42.370;-71.210;2024-02-28T02:23:41;190;139;
80628;PMS5003;69983;42.370;-71.210;2024-02-28T02:25:43;176;127;
80628;PMS5003;69983;42.370;-71.210;2024-02-28T02:27:43;144;115;
80628;PMS5003;69983;42.370;-71.210;2024-02-28T02:29:43;138;100;
80628;PMS5003;69983;42.370;-71.210;2024-02-28T02:31:43;120;94;
80628;PMS5003;69983;42.370;-71.210;2024-02-28T02:33:44;101;79;
80628;PMS5003;69983;42.370;-71.210;2024-02-28T02:35:45;94;72;
80628;PMS5003;69983;42.370;-71.210;2024-02-28T02:37:44;90;69;
80628;PMS5003;69983;42.370;-71.210;2024-02-28T02:39:45;92;72;
80628;PMS5003;69983;42.370;-71.210;2024-02-28T02:41:45;73;53;
80628;PMS5003;69983;42.370;-71.210;2024-02-28T02:43:46;74;56;
80628;PMS5003;69983;42.370;-71.210;2024-02-28T02:45:47;66;45;
80628;PMS5003;69983;42.370;-71.210;2024-02-28T02:47:47;61;49;
80628;PMS5003;69983;42.370;-71.210;2024-02-28T02:49:47;47;40;
80628;PMS5003;69983;42.370;-71.210;2024-02-28T02:51:48;61;43;
80628;PMS5003;69983;42.370;-71.210;2024-02-28T02:53:48;46;36;
80628;PMS5003;69983;42.370;-71.210;2024-02-28T02:55:50;50;37;
80628;PMS5003;69983;42.370;-71.210;2024-02-28T02:57:50;94;79;
80628;PMS5003;69983;42.370;-71.210;2024-02-28T02:59:50;79;62;
80628;PMS5003;69983;42.370;-71.210;2024-02-28T03:01:51;86;62;
80628;PMS5003;69983;42.370;-71.210;2024-02-28T03:03:51;89;59;
80628;PMS5003;69983;42.370;-71.210;2024-02-28T03:05:51;80;54;
80628;PMS5003;69983;42.370;-71.210;2024-02-28T03:07:52;88;68;
80628;PMS5003;69983;42.370;-71.210;2024-02-28T03:09:52;93;64;
80628;PMS5003;69983;42.370;-71.210;2024-02-28T03:11:53;102;67;
80628;PMS5003;69983;42.370;-71.210;2024-02-28T03:13:53;103;71;
80628;PMS5003;69983;42.370;-71.210;2024-02-28T03:15:55;132;91;
80628;PMS5003;69983;42.370;-71.210;2024-02-28T03:17:55;190;119;
80628;PMS5003;69983;42.370;-71.210;2024-02-28T03:19:57;192;117;
80628;PMS5003;69983;42.370;-71.210;2024-02-28T03:21:56;147;95;
80628;PMS5003;69983;42.370;-71.210;2024-02-28T03:23:57;120;71;
80628;PMS5003;69983;42.370;-71.210;2024-02-28T03:25:56;171;96;
80628;PMS5003;69983;42.370;-71.210;2024-02-28T03:27:56;114;76;
80628;PMS5003;69983;42.370;-71.210;2024-02-28T03:29:56;113;68;
80628;PMS5003;69983;42.370;-71.210;2024-02-28T03:31:58;141;72;
80628;PMS5003;69983;42.370;-71.210;2024-02-28T03:33:58;118;67;
80628;PMS5003;69983;42.370;-71.210;2024-02-28T03:35:58;109;67;
80628;PMS5003;69983;42.370;-71.210;2024-02-28T03:37:58;102;55;
80628;PMS5003;69983;42.370;-71.210;2024-02-28T03:39:59;184;129;
80628;PMS5003;69983;42.370;-71.210;2024-02-28T03:41:59;170;129;
80628;PMS5003;69983;42.370;-71.210;2024-02-28T03:44:02;170;119;
80628;PMS5003;69983;42.370;-71.210;2024-02-28T03:46:01;179;118;
80628;PMS5003;69983;42.370;-71.210;2024-02-28T03:48:01;225;140;
80628;PMS5003;69983;42.370;-71.210;2024-02-28T03:50:01;215;132;
80628;PMS5003;69983;42.370;-71.210;2024-02-28T03:52:02;175;121;
80628;PMS5003;69983;42.370;-71.210;2024-02-28T03:54:02;162;106;
80628;PMS5003;69983;42.370;-71.210;2024-02-28T03:56:03;161;103;
80628;PMS5003;69983;42.370;-71.210;2024-02-28T03:58:03;138;88;
80628;PMS5003;69983;42.370;-71.210;2024-02-28T04:00:04;112;72;
80628;PMS5003;69983;42.370;-71.210;2024-02-28T04:02:04;97;61;
80628;PMS5003;69983;42.370;-71.210;2024-02-28T04:04:06;77;58;
80628;PMS5003;69983;42.370;-71.210;2024-02-28T04:06:05;71;57;
80628;PMS5003;69983;42.370;-71.210;2024-02-28T04:08:06;65;43;
80628;PMS5003;69983;42.370;-71.210;2024-02-28T04:10:07;182;139;
80628;PMS5003;69983;42.370;-71.210;2024-02-28T04:12:08;201;159;
80628;PMS5003;69983;42.370;-71.210;2024-02-28T04:14:08;139;125;
80628;PMS5003;69983;42.370;-71.210;2024-02-28T04:16:09;150;111;
80628;PMS5003;69983;42.370;-71.210;2024-02-28T04:18:10;129;97;
80628;PMS5003;69983;42.370;-71.210;2024-02-28T04:20:11;106;86;
80628;PMS5003;69983;42.370;-71.210;2024-02-28T04:22:11;89;70;
80628;PMS5003;69983;42.370;-71.210;2024-02-28T04:24:12;80;66;
80628;PMS5003;69983;42.370;-71.210;2024-02-28T04:26:13;90;67;
80628;PMS5003;69983;42.370;-71.210;2024-02-28T04:28:13;80;61;
80628;PMS5003;69983;42.370;-71.210;2024-02-28T04:30:13;68;45;
80628;PMS5003;69983;42.370;-71.210;2024-02-28T04:32:14;56;46;
80628;PMS5003;69983;42.370;-71.210;2024-02-28T04:34:14;43;36;
80628;PMS5003;69983;42.370;-71.210;2024-02-28T04:36:15;56;41;
80628;PMS5003;69983;42.370;-71.210;2024-02-28T04:38:15;33;28;
80628;PMS5003;69983;42.370;-71.210;2024-02-28T04:40:16;41;29;
80628;PMS5003;69983;42.370;-71.210;2024-02-28T04:42:16;40;29;
80628;PMS5003;69983;42.370;-71.210;2024-02-28T04:44:17;274;217;
80628;PMS5003;69983;42.370;-71.210;2024-02-28T04:46:17;158;133;
80628;PMS5003;69983;42.370;-71.210;2024-02-28T04:48:18;247;188;
80628;PMS5003;69983;42.370;-71.210;2024-02-28T04:50:18;297;204;
80628;PMS5003;69983;42.370;-71.210;2024-02-28T04:52:18;203;142;
80628;PMS5003;69983;42.370;-71.210;2024-02-28T04:54:20;169;116;
80628;PMS5003;69983;42.370;-71.210;2024-02-28T04:56:20;196;128;
80628;PMS5003;69983;42.370;-71.210;2024-02-28T04:58:20;162;107;
80628;PMS5003;69983;42.370;-71.210;2024-02-28T05:00:21;154;97;
80628;PMS5003;69983;42.370;-71.210;2024-02-28T05:02:21;136;91;
80628;PMS5003;69983;42.370;-71.210;2024-02-28T05:04:22;109;73;
80628;PMS5003;69983;42.370;-71.210;2024-02-28T05:06:22;219;155;
80628;PMS5003;69983;42.370;-71.210;2024-02-28T05:08:23;185;130;
80628;PMS5003;69983;42.370;-71.210;2024-02-28T05:10:23;172;106;
80628;PMS5003;69983;42.370;-71.210;2024-02-28T05:12:23;145;101;
80628;PMS5003;69983;42.370;-71.210;2024-02-28T05:14:24;162;104;
80628;PMS5003;69983;42.370;-71.210;2024-02-28T05:16:24;127;92;
80628;PMS5003;69983;42.370;-71.210;2024-02-28T05:18:25;118;82;
80628;PMS5003;69983;42.370;-71.210;2024-02-28T05:20:25;120;74;
80628;PMS5003;69983;42.370;-71.210;2024-02-28T05:22:26;124;74;
80628;PMS5003;69983;42.370;-71.210;2024-02-28T05:24:27;110;69;
80628;PMS5003;69983;42.370;-71.210;2024-02-28T05:26:27;75;50;
80628;PMS5003;69983;42.370;-71.210;2024-02-28T05:28:27;91;54;
80628;PMS5003;69983;42.370;-71.210;2024-02-28T05:30:28;92;47;
80628;PMS5003;69983;42.370;-71.210;2024-02-28T05:32:28;78;54;
80628;PMS5003;69983;42.370;-71.210;2024-02-28T05:34:29;74;40;
80628;PMS5003;69983;42.370;-71.210;2024-02-28T05:36:30;135;85;
80628;PMS5003;69983;42.370;-71.210;2024-02-28T05:38:30;156;105;
80628;PMS5003;69983;42.370;-71.210;2024-02-28T05:40:31;117;69;
80628;PMS5003;69983;42.370;-71.210;2024-02-28T05:42:31;93;66;
80628;PMS5003;69983;42.370;-71.210;2024-02-28T05:44:32;89;57;
80628;PMS5003;69983;42.370;-71.210;2024-02-28T05:46:33;75;52;
80628;PMS5003;69983;42.370;-71.210;2024-02-28T05:48:33;66;51;
80628;PMS5003;69983;42.370;-71.210;2024-02-28T05:50:33;81;41;
80628;PMS5003;69983;42.370;-71.210;2024-02-28T05:52:34;58;42;
80628;PMS5003;69983;42.370;-71.210;2024-02-28T05:54:36;44;30;
80628;PMS5003;69983;42.370;-71.210;2024-02-28T05:56:35;44;27;
80628;PMS5003;69983;42.370;-71.210;2024-02-28T05:58:36;36;26;
80628;PMS5003;69983;42.370;-71.210;2024-02-28T06:00:36;27;20;
80628;PMS5003;69983;42.370;-71.210;2024-02-28T06:02:36;45;25;
80628;PMS5003;69983;42.370;-71.210;2024-02-28T06:04:36;33;22;
80628;PMS5003;69983;42.370;-71.210;2024-02-28T06:06:36;74;38;
80628;PMS5003;69983;42.370;-71.210;2024-02-28T06:08:38;48;32;
80628;PMS5003;69983;42.370;-71.210;2024-02-28T06:10:37;48;26;
80628;PMS5003;69983;42.370;-71.210;2024-02-28T06:12:38;38;23;
80628;PMS5003;69983;42.370;-71.210;2024-02-28T06:14:38;35;18;
80628;PMS5003;69983;42.370;-71.210;2024-02-28T06:16:39;27;16;
80628;PMS5003;69983;42.370;-71.210;2024-02-28T06:18:39;26;14;
80628;PMS5003;69983;42.370;-71.210;2024-02-28T06:20:39;22;11;
80628;PMS5003;69983;42.370;-71.210;2024-02-28T06:22:40;24;15;
80628;PMS5003;69983;42.370;-71.210;2024-02-28T06:24:40;17;9;
80628;PMS5003;69983;42.370;-71.210;2024-02-28T06:26:40;10;8;
80628;PMS5003;69983;42.370;-71.210;2024-02-28T06:28:40;13;7;
80628;PMS5003;69983;42.370;-71.210;2024-02-28T06:30:41;9;6;
80628;PMS5003;69983;42.370;-71.210;2024-02-28T06:32:42;12;7;
80628;PMS5003;69983;42.370;-71.210;2024-02-28T06:34:42;242;168;
80628;PMS5003;69983;42.370;-71.210;2024-02-28T06:36:42;154;130;
80628;PMS5003;69983;42.370;-71.210;2024-02-28T06:38:43;119;96;
80628;PMS5003;69983;42.370;-71.210;2024-02-28T06:40:43;126;87;
80628;PMS5003;69983;42.370;-71.210;2024-02-28T06:42:44;93;75;
80628;PMS5003;69983;42.370;-71.210;2024-02-28T06:44:44;83;62;
80628;PMS5003;69983;42.370;-71.210;2024-02-28T06:46:45;72;48;
80628;PMS5003;69983;42.370;-71.210;2024-02-28T06:48:45;58;48;
80628;PMS5003;69983;42.370;-71.210;2024-02-28T06:50:47;52;38;
80628;PMS5003;69983;42.370;-71.210;2024-02-28T06:52:47;48;34;
80628;PMS5003;69983;42.370;-71.210;2024-02-28T06:54:46;34;27;
80628;PMS5003;69983;42.370;-71.210;2024-02-28T06:56:46;36;26;
80628;PMS5003;69983;42.370;-71.210;2024-02-28T06:58:46;35;22;
80628;PMS5003;69983;42.370;-71.210;2024-02-28T07:00:47;21;18;
80628;PMS5003;69983;42.370;-71.210;2024-02-28T07:02:47;24;16;
80628;PMS5003;69983;42.370;-71.210;2024-02-28T07:04:46;26;16;
80628;PMS5003;69983;42.370;-71.210;2024-02-28T07:06:47;15;12;
80628;PMS5003;69983;42.370;-71.210;2024-02-28T07:08:47;14;12;
80628;PMS5003;69983;42.370;-71.210;2024-02-28T07:10:48;16;12;
80628;PMS5003;69983;42.370;-71.210;2024-02-28T07:12:48;13;11;
80628;PMS5003;69983;42.370;-71.210;2024-02-28T07:14:48;14;10;
80628;PMS5003;69983;42.370;-71.210;2024-02-28T07:16:48;11;8;
80628;PMS5003;69983;42.370;-71.210;2024-02-28T07:18:49;12;7;
80628;PMS5003;69983;42.370;-71.210;2024-02-28T07:20:49;11;9;
80628;PMS5003;69983;42.370;-71.210;2024-02-28T07:22:49;7;5;
80628;PMS5003;69983;42.370;-71.210;2024-02-28T07:24:49;7;6;
80628;PMS5003;69983;42.370;-71.210;2024-02-28T07:26:50;9;5;
80628;PMS5003;69983;42.370;-71.210;2024-02-28T07:28:50;8;6;
80628;PMS5003;69983;42.370;-71.210;2024-02-28T07:30:50;3;3;
80628;PMS5003;69983;42.370;-71.210;2024-02-28T07:32:50;7;3;
80628;PMS5003;69983;42.370;-71.210;2024-02-28T07:34:50;3;3;
80628;PMS5003;69983;42.370;-71.210;2024-02-28T07:36:50;2;2;
80628;PMS5003;69983;42.370;-71.210;2024-02-28T07:38:50;4;3;
80628;PMS5003;69983;42.370;-71.210;2024-02-28T07:40:50;5;2;
80628;PMS5003;69983;42.370;-71.210;2024-02-28T07:42:50;4;4;
80628;PMS5003;69983;42.370;-71.210;2024-02-28T07:44:50;5;1;
80628;PMS5003;69983;42.370;-71.210;2024-02-28T07:46:50;3;2;
80628;PMS5003;69983;42.370;-71.210;2024-02-28T07:48:51;2;1;
80628;PMS5003;69983;42.370;-71.210;2024-02-28T07:50:51;1;1;
80628;PMS5003;69983;42.370;-71.210;2024-02-28T07:52:53;2;2;
80628;PMS5003;69983;42.370;-71.210;2024-02-28T07:54:51;2;2;
80628;PMS5003;69983;42.370;-71.210;2024-02-28T07:56:51;1;1;
80628;PMS5003;69983;42.370;-71.210;2024-02-28T07:58:51;2;2;
80628;PMS5003;69983;42.370;-71.210;2024-02-28T08:00:51;1;1;
80628;PMS5003;69983;42.370;-71.210;2024-02-28T08:02:52;1;1;
80628;PMS5003;69983;42.370;-71.210;2024-02-28T08:04:51;1;1;
80628;PMS5003;69983;42.370;-71.210;2024-02-28T08:06:51;0;0;
80628;PMS5003;69983;42.370;-71.210;2024-02-28T08:08:51;1;0;
80628;PMS5003;69983;42.370;-71.210;2024-02-28T08:10:51;3;1;
80628;PMS5003;69983;42.370;-71.210;2024-02-28T08:12:52;1;1;
80628;PMS5003;69983;42.370;-71.210;2024-02-28T08:14:52;0;0;
80628;PMS5003;69983;42.370;-71.210;2024-02-28T08:16:52;1;1;
80628;PMS5003;69983;42.370;-71.210;2024-02-28T08:18:52;0;0;
80628;PMS5003;69983;42.370;-71.210;2024-02-28T08:20:52;1;1;
80628;PMS5003;69983;42.370;-71.210;2024-02-28T08:22:52;0;0;
80628;PMS5003;69983;42.370;-71.210;2024-02-28T08:24:52;2;1;
80628;PMS5003;69983;42.370;-71.210;2024-02-28T08:26:52;0;0;
80628;PMS5003;69983;42.370;-71.210;2024-02-28T08:28:52;0;0;
80628;PMS5003;69983;42.370;-71.210;2024-02-28T08:30:52;0;0;
80628;PMS5003;69983;42.370;-71.210;2024-02-28T08:32:53;0;0;
80628;PMS5003;69983;42.370;-71.210;2024-02-28T08:34:53;0;0;
80628;PMS5003;69983;42.370;-71.210;2024-02-28T08:36:53;1;0;
80628;PMS5003;69983;42.370;-71.210;2024-02-28T08:38:53;0;0;
80628;PMS5003;69983;42.370;-71.210;2024-02-28T08:40:53;0;0;
80628;PMS5003;69983;42.370;-71.210;2024-02-28T08:42:53;0;0;
80628;PMS5003;69983;42.370;-71.210;2024-02-28T08:44:53;0;0;
80628;PMS5003;69983;42.370;-71.210;2024-02-28T08:46:53;0;0;
80628;PMS5003;69983;42.370;-71.210;2024-02-28T08:48:53;0;0;
80628;PMS5003;69983;42.370;-71.210;2024-02-28T08:50:53;0;0;
80628;PMS5003;69983;42.370;-71.210;2024-02-28T08:52:53;0;0;
80628;PMS5003;69983;42.370;-71.210;2024-02-28T08:54:53;0;0;
80628;PMS5003;69983;42.370;-71.210;2024-02-28T08:56:53;0;0;
80628;PMS5003;69983;42.370;-71.210;2024-02-28T08:58:54;0;0;
80628;PMS5003;69983;42.370;-71.210;2024-02-28T09:00:54;0;0;
80628;PMS5003;69983;42.370;-71.210;2024-02-28T09:02:54;0;0;
80628;PMS5003;69983;42.370;-71.210;2024-02-28T09:04:54;0;0;
80628;PMS5003;69983;42.370;-71.210;2024-02-28T09:06:54;0;0;
80628;PMS5003;69983;42.370;-71.210;2024-02-28T09:08:54;0;0;
80628;PMS5003;69983;42.370;-71.210;2024-02-28T09:10:54;0;0;
80628;PMS5003;69983;42.370;-71.210;2024-02-28T09:12:54;0;0;
80628;PMS5003;69983;42.370;-71.210;2024-02-28T09:14:54;0;0;
80628;PMS5003;69983;42.370;-71.210;2024-02-28T09:16:54;0;0;
80628;PMS5003;69983;42.370;-71.210;2024-02-28T09:18:54;0;0;
80628;PMS5003;69983;42.370;-71.210;2024-02-28T09:20:54;0;0;
80628;PMS5003;69983;42.370;-71.210;2024-02-28T09:22:55;0;0;
80628;PMS5003;69983;42.370;-71.210;2024-02-28T09:24:55;0;0;
80628;PMS5003;69983;42.370;-71.210;2024-02-28T09:26:55;0;0;
80628;PMS5003;69983;42.370;-71.210;2024-02-28T09:28:55;0;0;
80628;PMS5003;69983;42.370;-71.210;2024-02-28T09:30:55;0;0;
80628;PMS5003;69983;42.370;-71.210;2024-02-28T09:32:55;0;0;
80628;PMS5003;69983;42.370;-71.210;2024-02-28T09:34:55;0;0;
80628;PMS5003;69983;42.370;-71.210;2024-02-28T09:36:55;0;0;
80628;PMS5003;69983;42.370;-71.210;2024-02-28T09:38:55;0;0;
80628;PMS5003;69983;42.370;-71.210;2024-02-28T09:40:55;0;0;
80628;PMS5003;69983;42.370;-71.210;2024-02-28T09:42:57;0;0;
80628;PMS5003;69983;42.370;-71.210;2024-02-28T09:44:56;0;0;
80628;PMS5003;69983;42.370;-71.210;2024-02-28T09:46:56;0;0;
80628;PMS5003;69983;42.370;-71.210;2024-02-28T09:48:56;0;0;
80628;PMS5003;69983;42.370;-71.210;2024-02-28T09:50:56;0;0;
80628;PMS5003;69983;42.370;-71.210;2024-02-28T09:52:56;0;0;
80628;PMS5003;69983;42.370;-71.210;2024-02-28T09:54:56;0;0;
80628;PMS5003;69983;42.370;-71.210;2024-02-28T09:56:56;0;0;
80628;PMS5003;69983;42.370;-71.210;2024-02-28T09:58:56;0;0;
80628;PMS5003;69983;42.370;-71.210;2024-02-28T10:00:57;0;0;
80628;PMS5003;69983;42.370;-71.210;2024-02-28T10:02:57;0;0;
80628;PMS5003;69983;42.370;-71.210;2024-02-28T10:04:56;0;0;
80628;PMS5003;69983;42.370;-71.210;2024-02-28T10:06:56;0;0;
80628;PMS5003;69983;42.370;-71.210;2024-02-28T10:08:56;0;0;
80628;PMS5003;69983;42.370;-71.210;2024-02-28T10:10:57;0;0;
80628;PMS5003;69983;42.370;-71.210;2024-02-28T10:12:57;0;0;
80628;PMS5003;69983;42.370;-71.210;2024-02-28T10:14:57;0;0;
80628;PMS5003;69983;42.370;-71.210;2024-02-28T10:17:02;0;0;
80628;PMS5003;69983;42.370;-71.210;2024-02-28T10:18:57;0;0;
80628;PMS5003;69983;42.370;-71.210;2024-02-28T10:20:57;0;0;
80628;PMS5003;69983;42.370;-71.210;2024-02-28T10:22:58;0;0;
80628;PMS5003;69983;42.370;-71.210;2024-02-28T10:24:57;0;0;
80628;PMS5003;69983;42.370;-71.210;2024-02-28T10:27:02;0;0;
80628;PMS5003;69983;42.370;-71.210;2024-02-28T10:28:57;0;0;
80628;PMS5003;69983;42.370;-71.210;2024-02-28T10:30:57;0;0;
80628;PMS5003;69983;42.370;-71.210;2024-02-28T10:32:57;0;0;
80628;PMS5003;69983;42.370;-71.210;2024-02-28T10:34:58;0;0;
80628;PMS5003;69983;42.370;-71.210;2024-02-28T10:36:58;0;0;
80628;PMS5003;69983;42.370;-71.210;2024-02-28T10:38:58;0;0;
80628;PMS5003;69983;42.370;-71.210;2024-02-28T10:40:58;0;0;
80628;PMS5003;69983;42.370;-71.210;2024-02-28T10:42:58;0;0;
80628;PMS5003;69983;42.370;-71.210;2024-02-28T10:44:58;0;0;
80628;PMS5003;69983;42.370;-71.210;2024-02-28T10:46:58;0;0;
80628;PMS5003;69983;42.370;-71.210;2024-02-28T10:48:58;0;0;
80628;PMS5003;69983;42.370;-71.210;2024-02-28T10:50:58;0;0;
80628;PMS5003;69983;42.370;-71.210;2024-02-28T10:53:00;1;0;
80628;PMS5003;69983;42.370;-71.210;2024-02-28T10:54:59;0;0;
80628;PMS5003;69983;42.370;-71.210;2024-02-28T10:56:59;1;0;
80628;PMS5003;69983;42.370;-71.210;2024-02-28T10:58:59;0;0;
80628;PMS5003;69983;42.370;-71.210;2024-02-28T11:00:59;0;0;
80628;PMS5003;69983;42.370;-71.210;2024-02-28T11:02:59;0;0;
80628;PMS5003;69983;42.370;-71.210;2024-02-28T11:04:59;0;0;
80628;PMS5003;69983;42.370;-71.210;2024-02-28T11:07:00;0;0;
80628;PMS5003;69983;42.370;-71.210;2024-02-28T11:08:59;0;0;
80628;PMS5003;69983;42.370;-71.210;2024-02-28T11:11:03;0;0;
80628;PMS5003;69983;42.370;-71.210;2024-02-28T11:12:59;0;0;
80628;PMS5003;69983;42.370;-71.210;2024-02-28T11:15:00;0;0;
80628;PMS5003;69983;42.370;-71.210;2024-02-28T11:17:00;0;0;
80628;PMS5003;69983;42.370;-71.210;2024-02-28T11:19:01;0;0;
80628;PMS5003;69983;42.370;-71.210;2024-02-28T11:21:00;0;0;
80628;PMS5003;69983;42.370;-71.210;2024-02-28T11:23:00;0;0;
80628;PMS5003;69983;42.370;-71.210;2024-02-28T11:25:00;0;0;
80628;PMS5003;69983;42.370;-71.210;2024-02-28T11:27:00;0;0;
80628;PMS5003;69983;42.370;-71.210;2024-02-28T11:29:00;0;0;
80628;PMS5003;69983;42.370;-71.210;2024-02-28T11:31:00;0;0;
80628;PMS5003;69983;42.370;-71.210;2024-02-28T11:33:00;0;0;
80628;PMS5003;69983;42.370;-71.210;2024-02-28T11:35:00;0;0;
80628;PMS5003;69983;42.370;-71.210;2024-02-28T11:37:00;0;0;
80628;PMS5003;69983;42.370;-71.210;2024-02-28T11:39:00;0;0;
80628;PMS5003;69983;42.370;-71.210;2024-02-28T11:41:00;0;0;
80628;PMS5003;69983;42.370;-71.210;2024-02-28T11:43:00;0;0;
80628;PMS5003;69983;42.370;-71.210;2024-02-28T11:45:09;0;0;
80628;PMS5003;69983;42.370;-71.210;2024-02-28T11:47:01;0;0;
80628;PMS5003;69983;42.370;-71.210;2024-02-28T11:49:01;0;0;
80628;PMS5003;69983;42.370;-71.210;2024-02-28T11:51:01;0;0;
80628;PMS5003;69983;42.370;-71.210;2024-02-28T11:53:01;0;0;
80628;PMS5003;69983;42.370;-71.210;2024-02-28T11:55:01;0;0;
80628;PMS5003;69983;42.370;-71.210;2024-02-28T11:57:01;0;0;
80628;PMS5003;69983;42.370;-71.210;2024-02-28T11:59:01;0;0;
80628;PMS5003;69983;42.370;-71.210;2024-02-28T12:01:01;0;0;
80628;PMS5003;69983;42.370;-71.210;2024-02-28T12:03:05;0;0;
80628;PMS5003;69983;42.370;-71.210;2024-02-28T12:05:01;0;0;
80628;PMS5003;69983;42.370;-71.210;2024-02-28T12:07:04;0;0;
80628;PMS5003;69983;42.370;-71.210;2024-02-28T12:09:02;0;0;
80628;PMS5003;69983;42.370;-71.210;2024-02-28T12:11:06;0;0;
80628;PMS5003;69983;42.370;-71.210;2024-02-28T12:13:02;0;0;
80628;PMS5003;69983;42.370;-71.210;2024-02-28T12:15:02;0;0;
80628;PMS5003;69983;42.370;-71.210;2024-02-28T12:17:02;0;0;
80628;PMS5003;69983;42.370;-71.210;2024-02-28T12:19:04;0;0;
80628;PMS5003;69983;42.370;-71.210;2024-02-28T12:21:02;0;0;
80628;PMS5003;69983;42.370;-71.210;2024-02-28T12:23:02;1;0;
80628;PMS5003;69983;42.370;-71.210;2024-02-28T12:25:02;0;0;
80628;PMS5003;69983;42.370;-71.210;2024-02-28T12:27:02;0;0;
80628;PMS5003;69983;42.370;-71.210;2024-02-28T12:29:02;0;0;
80628;PMS5003;69983;42.370;-71.210;2024-02-28T12:31:03;1;0;
80628;PMS5003;69983;42.370;-71.210;2024-02-28T12:33:03;0;0;
80628;PMS5003;69983;42.370;-71.210;2024-02-28T12:35:03;0;0;
80628;PMS5003;69983;42.370;-71.210;2024-02-28T12:37:03;0;0;
80628;PMS5003;69983;42.370;-71.210;2024-02-28T12:39:03;0;0;
80628;PMS5003;69983;42.370;-71.210;2024-02-28T12:41:03;0;0;
80628;PMS5003;69983;42.370;-71.210;2024-02-28T12:43:03;0;0;
80628;PMS5003;69983;42.370;-71.210;2024-02-28T12:45:03;0;0;
80628;PMS5003;69983;42.370;-71.210;2024-02-28T12:47:03;0;0;
80628;PMS5003;69983;42.370;-71.210;2024-02-28T12:49:03;0;0;
80628;PMS5003;69983;42.370;-71.210;2024-02-28T12:51:05;0;0;
80628;PMS5003;69983;42.370;-71.210;2024-02-28T12:53:03;0;0;
80628;PMS5003;69983;42.370;-71.210;2024-02-28T12:55:04;0;0;
80628;PMS5003;69983;42.370;-71.210;2024-02-28T12:57:04;0;0;
80628;PMS5003;69983;42.370;-71.210;2024-02-28T12:59:04;0;0;
80628;PMS5003;69983;42.370;-71.210;2024-02-28T13:01:04;0;0;